Latest Weather Observations for Minlaton Airport

IDS60801

Issued at 7:02 am CDT Saturday 20 December 2014 (issued every 30 minutes, with the page automatically refreshed every 10 minutes)

About weather observations | Map of weather stations | Latest weather observations for SA | Other Formats
Station Details ID: 022031 Name: MINLATON AERO Lat: -34.75 Lon: 137.53 Height: 32.0 m
Data from the previous 72 hours. | See also: Recent months at Minlaton Airport
Date/Time
CDT
Temp
°C
App
Temp
°C
Dew
Point
Rel
Hum
%
Delta-T
°C
Wind Press
QNH
hPa
Press
MSL
hPa
Rain
since 9 am
mm
Dir
 
Spd
km/h
Gust
km/h
Spd
kts
Gust
kts
20/07:00am 13.1 10.8 10.6 85 1.3 ESE 13 15 7 8 1018.7 1018.6 0.0
20/06:30am 10.7 7.6 9.0 89 0.8 ESE 15 17 8 9 1018.6 1018.5 0.0
20/06:00am 9.3 6.3 7.7 90 0.8 E 13 13 7 7 1018.7 1018.6 0.0
20/05:30am 10.2 8.1 8.3 88 0.9 E 9 11 5 6 1018.6 1018.5 0.0
20/05:00am 9.6 6.6 7.7 88 0.9 ESE 13 13 7 7 1018.2 1018.1 0.0
20/04:30am 10.0 7.0 7.9 87 1.0 ESE 13 15 7 8 1018.0 1017.9 0.0
20/04:00am 10.1 7.1 7.9 86 1.1 ESE 13 15 7 8 1018.0 1017.9 0.0
20/03:30am 10.6 7.3 8.2 85 1.2 ESE 15 17 8 9 1018.1 1018.0 0.0
20/03:00am 11.5 7.7 8.9 84 1.3 ESE 19 19 10 10 1018.3 1018.2 0.0
20/02:30am 12.2 8.4 9.2 82 1.5 SE 19 20 10 11 1018.5 1018.4 0.0
20/02:00am 12.3 8.9 9.1 81 1.6 SE 17 20 9 11 1018.8 1018.7 0.0
20/01:30am 12.7 9.8 9.5 81 1.6 SE 15 17 8 9 1019.3 1019.2 0.0
20/01:00am 12.8 9.4 9.3 79 1.8 SE 17 19 9 10 1019.7 1019.6 0.0
20/12:30am 13.0 9.6 9.3 78 1.9 SE 17 19 9 10 1020.1 1020.0 0.0
20/12:00am 13.7 10.4 9.6 76 2.1 SE 17 20 9 11 1020.2 1020.1 0.0
 
Date/Time
CDT
Temp
°C
App
Temp
°C
Dew
Point
Rel
Hum
%
Delta-T
°C
Wind Press
QNH
hPa
Press
MSL
hPa
Rain
since 9 am
mm
Dir
 
Spd
km/h
Gust
km/h
Spd
kts
Gust
kts
19/11:30pm 14.4 10.8 10.0 75 2.3 SE 19 20 10 11 1020.3 1020.2 0.0
19/11:00pm 14.4 10.6 9.8 74 2.4 SE 20 22 11 12 1020.6 1020.5 0.0
19/10:30pm 14.7 11.4 9.5 71 2.7 SE 17 19 9 10 1020.8 1020.7 0.0
19/10:00pm 15.2 11.8 9.3 68 3.0 SE 17 20 9 11 1020.6 1020.5 0.0
19/09:30pm 15.6 12.3 9.5 67 3.2 SE 17 20 9 11 1020.5 1020.4 0.0
19/09:00pm 16.2 12.5 9.4 64 3.5 SSE 19 22 10 12 1020.4 1020.3 0.0
19/08:30pm 17.4 12.7 9.1 58 4.3 SSE 24 30 13 16 1020.3 1020.2 0.0
19/08:00pm 18.6 13.9 9.1 54 5.0 S 24 32 13 17 1020.4 1020.3 0.0
19/07:30pm 19.6 14.1 9.2 51 5.5 SSE 28 33 15 18 1020.2 1020.1 0.0
19/07:00pm 20.8 15.6 8.8 46 6.3 S 26 33 14 18 1019.8 1019.7 0.0
19/06:30pm 21.7 16.7 7.9 41 7.2 S 24 33 13 18 1019.6 1019.5 0.0
19/06:00pm 21.4 16.1 11.1 52 5.7 WSW 30 35 16 19 1019.4 1019.3 0.0
19/05:30pm 21.4 15.5 10.3 49 6.0 W 32 39 17 21 1019.4 1019.3 0.0
19/05:00pm 21.6 16.0 10.1 48 6.2 W 30 37 16 20 1019.5 1019.4 0.0
19/04:30pm 21.5 15.3 9.4 46 6.5 W 32 37 17 20 1019.8 1019.7 0.0
19/04:00pm 22.3 16.1 9.5 44 6.9 W 32 37 17 20 1020.0 1019.9 0.0
19/03:30pm 21.6 15.2 8.5 43 6.9 W 32 41 17 22 1020.1 1020.0 0.0
19/03:00pm 21.3 15.2 8.2 43 6.8 W 30 39 16 21 1020.2 1020.1 0.0
19/02:30pm 21.7 15.6 8.2 42 7.1 W 30 39 16 21 1020.4 1020.3 0.0
19/02:00pm 22.2 15.7 8.0 40 7.4 WSW 32 37 17 20 1020.5 1020.4 0.0
19/01:30pm 21.2 14.4 6.7 39 7.4 W 32 41 17 22 1020.5 1020.4 0.0
19/01:00pm 21.1 14.5 7.7 42 6.9 W 32 39 17 21 1020.7 1020.6 0.0
19/12:30pm 21.2 15.2 7.1 40 7.2 W 28 39 15 21 1020.8 1020.7 0.0
19/12:00pm 21.3 15.2 6.4 38 7.5 W 28 39 15 21 1020.8 1020.7 0.0
19/11:30am 21.2 15.4 6.3 38 7.5 WSW 26 35 14 19 1020.9 1020.8 0.0
19/11:00am 20.4 15.2 7.4 43 6.7 W 24 32 13 17 1020.8 1020.7 0.0
19/10:30am 20.5 17.1 6.1 39 7.2 SW 13 28 7 15 1020.9 1020.8 0.0
19/10:00am 19.4 15.5 5.5 40 6.8 SSE 15 24 8 13 1021.0 1020.9 0.0
19/09:30am 18.6 15.6 5.8 43 6.3 SSE 11 22 6 12 1020.9 1020.8 0.0
19/09:00am 18.1 15.5 7.8 51 5.2 SSW 11 20 6 11 1020.6 1020.5 0.0
19/08:30am 17.2 14.1 7.3 52 4.9 S 13 20 7 11 1020.3 1020.2 0.0
19/08:00am 16.5 14.2 7.4 55 4.5 S 9 13 5 7 1019.9 1019.8 0.0
19/07:30am 14.6 12.4 7.9 64 3.3 SE 9 11 5 6 1019.6 1019.5 0.0
19/07:00am 11.4 8.6 7.1 75 2.1 SE 11 11 6 6 1019.2 1019.1 0.0
19/06:30am 9.1 5.7 5.7 79 1.5 SE 13 13 7 7 1018.7 1018.6 0.0
19/06:00am 10.1 6.8 6.3 77 1.8 SSE 13 15 7 8 1018.6 1018.5 0.0
19/05:30am 10.3 6.3 6.6 78 1.7 SSE 17 17 9 9 1018.3 1018.2 0.0
19/05:00am 8.5 4.8 4.7 77 1.7 SSE 13 15 7 8 1018.3 1018.2 0.0
19/04:30am 10.0 6.2 6.0 76 1.8 SSE 15 15 8 8 1018.2 1018.1 0.0
19/04:00am 9.7 6.2 5.3 74 2.0 SSE 13 13 7 7 1018.3 1018.2 0.0
19/03:30am 10.6 7.2 5.8 72 2.2 SSE 13 15 7 8 1018.4 1018.3 0.0
19/03:00am 11.3 7.5 5.8 69 2.5 SSE 15 17 8 9 1018.2 1018.1 0.0
19/02:30am 10.5 7.1 5.9 73 2.1 SSE 13 15 7 8 1018.2 1018.1 0.0
19/02:00am 10.7 6.8 5.5 70 2.4 S 15 15 8 8 1018.4 1018.3 0.0
19/01:30am 10.9 7.0 5.2 68 2.6 S 15 15 8 8 1018.6 1018.5 0.0
19/01:00am 10.7 7.2 5.3 69 2.5 S 13 15 7 8 1018.6 1018.5 0.0
19/12:30am 10.3 6.3 5.1 70 2.4 SSE 15 15 8 8 1018.4 1018.3 0.0
19/12:00am 11.1 6.7 5.0 66 2.8 SSE 17 17 9 9 1018.3 1018.2 0.0
 
Date/Time
CDT
Temp
°C
App
Temp
°C
Dew
Point
Rel
Hum
%
Delta-T
°C
Wind Press
QNH
hPa
Press
MSL
hPa
Rain
since 9 am
mm
Dir
 
Spd
km/h
Gust
km/h
Spd
kts
Gust
kts
18/11:30pm 13.8 9.2 6.4 61 3.5 SSW 20 24 11 13 1018.3 1018.2 0.0
18/11:00pm 14.7 9.3 6.5 58 4.0 SSW 24 30 13 16 1018.0 1017.9 0.0
18/10:30pm 14.8 10.0 7.4 61 3.6 SW 22 28 12 15 1017.8 1017.7 0.0
18/10:00pm 14.9 9.7 7.2 60 3.8 SW 24 30 13 16 1017.5 1017.4 0.0
18/09:30pm 15.0 10.5 6.8 58 4.0 SW 20 26 11 14 1017.2 1017.1 0.0
18/09:00pm 15.5 10.8 6.0 53 4.6 SSW 20 24 11 13 1017.0 1016.9 0.0
18/08:30pm 16.5 10.0 4.9 46 5.5 SW 28 35 15 19 1016.6 1016.5 0.0
18/08:00pm 17.7 10.5 5.0 43 6.1 SW 32 39 17 21 1016.2 1016.1 0.0
18/07:30pm 19.2 12.7 6.3 43 6.4 SW 30 39 16 21 1015.7 1015.6 0.0
18/07:00pm 19.7 12.3 5.0 38 7.2 SW 33 43 18 23 1015.3 1015.2 0.0
18/06:30pm 20.7 13.6 6.3 39 7.2 SW 33 44 18 24 1014.7 1014.6 0.0
18/06:00pm 20.7 12.9 6.6 40 7.1 SW 37 48 20 26 1014.5 1014.4 0.0
18/05:43pm 19.9 12.6 7.3 44 6.4 SW 35 48 19 26 1014.3 1014.2 0.0
18/05:30pm 21.1 12.9 6.6 39 7.4 WSW 39 50 21 27 1014.1 1014.0 0.0
18/05:00pm 21.8 13.1 6.1 36 7.9 WSW 41 50 22 27 1013.9 1013.8 0.0
18/04:30pm 22.6 14.4 8.0 39 7.7 WSW 41 54 22 29 1013.8 1013.7 0.0
18/04:00pm 22.9 15.5 10.0 44 7.0 WSW 39 52 21 28 1013.6 1013.5 0.0
18/03:30pm 21.8 13.9 8.0 41 7.2 WSW 39 48 21 26 1013.4 1013.3 0.0
18/03:00pm 21.7 13.4 9.3 45 6.6 WSW 43 50 23 27 1013.4 1013.3 0.0
18/02:30pm 22.1 14.7 9.9 46 6.6 WSW 39 48 21 26 1013.3 1013.2 0.0
18/02:00pm 22.9 15.5 10.0 44 7.0 W 39 46 21 25 1013.2 1013.1 0.0
18/01:30pm 21.9 15.2 11.0 50 6.0 W 37 46 20 25 1013.3 1013.2 0.0
18/01:00pm 22.0 15.6 10.8 49 6.2 WSW 35 44 19 24 1013.0 1012.9 0.0
18/12:30pm 21.3 14.0 11.6 54 5.4 WSW 41 54 22 29 1013.0 1012.9 0.0
18/12:00pm 21.6 15.0 11.3 52 5.7 W 37 48 20 26 1012.7 1012.6 0.0
18/11:30am 21.3 14.4 11.6 54 5.4 W 39 48 21 26 1012.6 1012.5 0.0
18/11:00am 19.9 12.8 12.2 61 4.3 W 41 52 22 28 1012.5 1012.4 0.0
18/10:30am 19.4 13.4 12.2 63 4.0 W 35 44 19 24 1012.4 1012.3 0.0
18/10:00am 19.9 13.7 11.4 58 4.7 W 35 43 19 23 1012.1 1012.0 0.0
18/09:30am 18.8 13.2 11.4 62 4.1 W 32 41 17 22 1011.9 1011.8 0.0
18/09:00am 19.8 14.4 10.8 56 4.9 W 30 39 16 21 1011.5 1011.4 0.0
18/08:30am 18.6 13.1 10.4 59 4.4 W 30 39 16 21 1011.4 1011.3 0.0
18/08:00am 18.6 13.3 11.2 62 4.0 W 30 35 16 19 1011.0 1010.9 0.0
18/07:30am 17.8 13.8 10.4 62 4.0 W 22 33 12 18 1010.5 1010.4 0.0
18/07:00am 16.7 13.0 10.3 66 3.4 W 20 26 11 14 1010.4 1010.3 0.0
18/06:30am 16.2 11.7 10.1 67 3.2 W 24 30 13 16 1009.9 1009.8 0.0
18/06:00am 15.8 11.3 10.1 69 3.0 W 24 32 13 17 1009.6 1009.5 0.0
18/05:30am 15.6 11.9 10.2 70 2.8 W 20 28 11 15 1009.3 1009.2 0.0
18/05:00am 15.1 12.1 10.7 75 2.3 W 17 26 9 14 1008.9 1008.8 0.0
18/04:30am 11.2 8.9 7.3 77 1.9 NNE 9 11 5 6 1008.8 1008.7 0.0
18/04:00am 11.0 9.7 7.5 79 1.7 ESE 4 7 2 4 1008.8 1008.7 0.0
18/03:30am 9.4 8.3 6.7 83 1.3 E 2 6 1 3 1008.6 1008.5 0.0
18/03:00am 9.3 7.3 6.2 81 1.4 E 6 7 3 4 1008.5 1008.4 0.0
18/02:30am 9.4 6.7 5.6 77 1.7 E 9 9 5 5 1008.7 1008.6 0.0
18/02:00am 10.2 7.3 6.4 77 1.8 E 11 13 6 7 1008.4 1008.3 0.0
18/01:30am 9.5 6.8 5.7 77 1.7 ESE 9 9 5 5 1008.8 1008.7 0.0
18/01:00am 9.6 6.9 5.8 77 1.7 ESE 9 9 5 5 1008.8 1008.7 0.0
18/12:30am 10.3 8.1 6.1 75 2.0 ESE 7 9 4 5 1009.1 1009.0 0.0
18/12:00am 10.5 7.9 6.3 75 2.0 ESE 9 9 5 5 1009.3 1009.2 0.0
 
Date/Time
CDT
Temp
°C
App
Temp
°C
Dew
Point
Rel
Hum
%
Delta-T
°C
Wind Press
QNH
hPa
Press
MSL
hPa
Rain
since 9 am
mm
Dir
 
Spd
km/h
Gust
km/h
Spd
kts
Gust
kts
17/11:30pm 10.7 7.6 5.7 71 2.3 ESE 11 11 6 6 1009.4 1009.3 0.0
17/11:00pm 11.7 8.4 6.2 69 2.6 SSE 13 15 7 8 1009.6 1009.5 0.0
17/10:30pm 12.5 8.8 6.5 67 2.9 SSE 15 15 8 8 1009.6 1009.5 0.0
17/10:00pm 13.2 9.6 6.8 65 3.1 S 15 17 8 9 1009.5 1009.4 0.0
17/09:30pm 14.5 10.7 7.5 63 3.5 S 17 20 9 11 1009.5 1009.4 0.0
17/09:00pm 15.8 11.6 8.1 60 3.9 S 20 24 11 13 1009.2 1009.1 0.0
17/08:30pm 16.9 13.4 8.6 58 4.3 S 17 22 9 12 1008.7 1008.6 0.0
17/08:00pm 18.2 13.3 8.5 53 5.0 S 24 32 13 17 1008.4 1008.3 0.0
17/07:30pm 20.0 16.0 9.0 49 5.8 SW 20 26 11 14 1007.9 1007.8 0.0
17/07:00pm 20.3 16.1 8.3 46 6.3 SW 20 26 11 14 1007.5 1007.4 0.0
17/06:30pm 21.4 17.4 6.5 38 7.6 WSW 17 28 9 15 1007.3 1007.2 0.0
17/06:00pm 20.8 17.0 6.0 38 7.4 WSW 15 20 8 11 1007.4 1007.3 0.0
17/05:30pm 21.4 17.0 4.9 34 8.1 WSW 17 24 9 13 1007.7 1007.6 0.0
17/05:00pm 21.4 17.4 3.1 30 8.7 SW 13 20 7 11 1007.9 1007.8 0.0
17/04:30pm 22.6 17.9 3.2 28 9.3 WSW 17 26 9 14 1008.4 1008.3 0.0
17/04:00pm 21.8 16.3 0.4 24 9.7 W 19 26 10 14 1009.0 1008.9 0.0
17/03:30pm 20.3 14.8 3.9 34 7.9 W 22 30 12 16 1009.3 1009.2 0.0
17/03:00pm 20.7 14.7 3.4 32 8.2 W 24 32 13 17 1009.3 1009.2 0.0
17/02:30pm 20.2 14.5 3.0 32 8.1 WNW 22 32 12 17 1009.3 1009.2 0.0
17/02:00pm 20.6 15.4 5.4 37 7.5 WNW 22 28 12 15 1009.8 1009.7 0.0
17/01:30pm 20.6 16.1 6.9 41 7.0 WNW 20 32 11 17 1010.3 1010.2 0.0
17/01:00pm 20.7 15.0 5.1 36 7.7 WSW 24 35 13 19 1010.5 1010.4 0.0
17/12:30pm 20.2 15.0 5.4 38 7.3 W 22 32 12 17 1010.7 1010.6 0.0
17/12:00pm 19.6 14.8 5.6 40 6.9 W 20 30 11 16 1010.9 1010.8 0.0
17/11:30am 20.3 15.6 5.1 37 7.5 WNW 19 28 10 15 1010.9 1010.8 0.0
17/11:00am 19.5 15.2 5.2 39 7.0 WNW 17 26 9 14 1011.0 1010.9 0.0
17/10:30am 19.1 15.6 5.6 41 6.6 W 13 20 7 11 1011.3 1011.2 0.0
17/10:00am 17.7 14.0 4.6 42 6.2 WNW 13 22 7 12 1011.5 1011.4 0.0
17/09:30am 18.2 15.5 5.4 43 6.2 WNW 9 17 5 9 1011.6 1011.5 0.0
17/09:00am 17.4 14.9 5.0 44 5.9 WNW 7 15 4 8 1011.8 1011.7 0.0
17/08:30am 17.1 14.9 5.4 46 5.6 WSW 6 7 3 4 1011.8 1011.7 0.0
17/08:00am 16.2 14.0 6.3 52 4.8 ENE 7 9 4 5 1011.6 1011.5 0.0
17/07:30am 13.1 10.3 7.1 67 2.9 E 11 11 6 6 1011.4 1011.3 0.0

Other Formats:

Comma delimited format used in spreadsheet applications
http://www.bom.gov.au/fwo/IDS60801/IDS60801.95659.axf

JavaScript Object Notation format (JSON) in row-major order
http://www.bom.gov.au/fwo/IDS60801/IDS60801.95659.json